createdAt,value
2023-05-15T00:01:14.079Z,99546.63
2023-05-15T00:06:15.742Z,99543.75
2023-05-15T00:11:17.498Z,99541.28
2023-05-15T00:16:19.372Z,99532.63
2023-05-15T00:21:21.081Z,99525.50
2023-05-15T00:26:23.379Z,99528.72
2023-05-15T00:31:25.075Z,99521.19
2023-05-15T00:36:26.749Z,99524.72
2023-05-15T00:41:32.172Z,99515.25
2023-05-15T00:46:35.690Z,99504.94
2023-05-15T00:51:37.485Z,99502.09
2023-05-15T00:56:40.284Z,99492.50
2023-05-15T01:01:45.134Z,99495.88
2023-05-15T01:06:48.760Z,99488.50
2023-05-15T01:11:53.471Z,99495.41
2023-05-15T01:16:55.141Z,99492.31
2023-05-15T01:22:18.020Z,99495.03
2023-05-15T01:27:32.189Z,99486.16
2023-05-15T01:32:39.854Z,99482.16
2023-05-15T01:37:45.533Z,99483.38
2023-05-15T01:42:56.145Z,99475.81
2023-05-15T01:48:00.639Z,99478.84
2023-05-15T01:53:03.804Z,99463.34
2023-05-15T01:58:05.510Z,99458.19
2023-05-15T02:03:07.460Z,99459.63
2023-05-15T02:08:09.794Z,99444.56
2023-05-15T02:13:12.638Z,99452.91
2023-05-15T02:18:14.306Z,99454.38
2023-05-15T02:23:16.013Z,99452.78
2023-05-15T02:28:24.289Z,99444.47
2023-05-15T02:33:39.506Z,99442.44
2023-05-15T02:38:47.162Z,99436.16
2023-05-15T02:43:51.879Z,99433.59
2023-05-15T02:48:54.835Z,99424.56
2023-05-15T02:53:56.496Z,99416.16
2023-05-15T02:58:58.170Z,99417.84
2023-05-15T03:03:59.835Z,99409.69
2023-05-15T03:09:01.540Z,99400.56
2023-05-15T03:14:03.344Z,99410.09
2023-05-15T03:19:05.462Z,99398.91
2023-05-15T03:24:07.421Z,99398.22
2023-05-15T03:29:09.090Z,99391.50
2023-05-15T03:34:10.948Z,99387.56
2023-05-15T03:39:12.632Z,99393.88
2023-05-15T03:44:14.297Z,99390.41
2023-05-15T03:49:16.015Z,99395.16
2023-05-15T03:54:17.696Z,99391.38
2023-05-15T03:59:19.260Z,99384.13
2023-05-15T04:04:20.850Z,99388.00
2023-05-15T04:09:22.463Z,99384.94
2023-05-15T04:14:24.070Z,99384.34
2023-05-15T04:19:25.705Z,99385.06
2023-05-15T04:24:27.310Z,99378.38
2023-05-15T04:29:28.910Z,99374.59
2023-05-15T04:34:30.572Z,99368.00
2023-05-15T04:39:32.241Z,99374.84
2023-05-15T04:44:34.076Z,99360.38
2023-05-15T04:49:35.694Z,99363.38
2023-05-15T04:54:37.301Z,99367.75
2023-05-15T04:59:38.954Z,99359.63
2023-05-15T05:04:45.638Z,99356.19
2023-05-15T05:09:47.348Z,99352.84
2023-05-15T05:14:49.323Z,99355.03
2023-05-15T05:19:51.011Z,99341.47
2023-05-15T05:24:52.674Z,99338.31
2023-05-15T05:29:54.378Z,99327.53
2023-05-15T05:34:56.011Z,99321.03
2023-05-15T05:39:57.671Z,99310.63
2023-05-15T05:44:59.266Z,99307.16
2023-05-15T05:50:01.086Z,99314.84
2023-05-15T05:55:03.152Z,99310.66
2023-05-15T06:00:10.545Z,99310.41
2023-05-15T06:05:13.523Z,99299.59
2023-05-15T06:10:15.676Z,99301.09
2023-05-15T06:15:17.473Z,99292.50
2023-05-15T06:20:19.131Z,99292.28
2023-05-15T06:25:21.007Z,99298.34
2023-05-15T06:30:23.018Z,99288.53
2023-05-15T06:35:24.820Z,99286.41
2023-05-15T06:40:26.636Z,99283.81
2023-05-15T06:45:28.749Z,99280.41
2023-05-15T06:50:30.667Z,99273.34
2023-05-15T06:55:34.154Z,99273.53
2023-05-15T07:00:35.754Z,99255.84
2023-05-15T07:05:37.347Z,99257.66
2023-05-15T07:10:38.962Z,99250.78
2023-05-15T07:15:40.579Z,99244.06
2023-05-15T07:20:42.452Z,99239.56
2023-05-15T07:25:45.300Z,99244.03
2023-05-15T07:30:47.769Z,99235.59
2023-05-15T07:35:50.816Z,99241.75
2023-05-15T07:40:52.462Z,99247.09
2023-05-15T07:45:54.182Z,99247.16
2023-05-15T07:50:57.075Z,99237.03
2023-05-15T07:55:59.384Z,99234.28
2023-05-15T08:01:01.140Z,99234.53
2023-05-15T08:06:02.926Z,99231.16
2023-05-15T08:11:04.640Z,99228.78
2023-05-15T08:16:06.501Z,99223.72
2023-05-15T08:21:08.302Z,99221.59
2023-05-15T08:26:09.937Z,99235.72
2023-05-15T08:31:11.671Z,99226.88
2023-05-15T08:36:14.155Z,99228.94
2023-05-15T08:41:40.110Z,99223.09
2023-05-15T08:46:43.427Z,99225.09
2023-05-15T08:51:45.597Z,99220.47
2023-05-15T08:56:47.548Z,99220.50
2023-05-15T09:01:49.869Z,99226.16
2023-05-15T09:06:52.720Z,99221.63
2023-05-15T09:11:54.678Z,99219.66
2023-05-15T09:16:56.636Z,99213.81
2023-05-15T09:22:16.422Z,99211.09
2023-05-15T09:27:19.007Z,99218.28
2023-05-15T09:32:20.689Z,99207.59
2023-05-15T09:37:32.875Z,99203.13
2023-05-15T09:42:35.305Z,99199.84
2023-05-15T09:47:37.238Z,99201.03
2023-05-15T09:52:39.308Z,99191.03
2023-05-15T09:57:41.192Z,99200.50
2023-05-15T10:02:42.923Z,99193.88
2023-05-15T10:07:44.595Z,99193.00
2023-05-15T10:12:48.337Z,99199.16
2023-05-15T10:17:52.405Z,99198.72
2023-05-15T10:22:56.261Z,99186.28
2023-05-15T10:27:58.123Z,99190.28
2023-05-15T10:33:01.034Z,99187.06
2023-05-15T10:38:05.564Z,99182.94
2023-05-15T10:43:10.276Z,99179.00
2023-05-15T10:48:14.041Z,99179.09
2023-05-15T10:53:16.240Z,99164.56
2023-05-15T10:58:21.710Z,99157.94
2023-05-15T11:03:48.171Z,99152.75
2023-05-15T11:08:51.317Z,99135.41
2023-05-15T11:14:05.424Z,99128.88
2023-05-15T11:19:21.827Z,99123.78
2023-05-15T11:24:58.720Z,99119.38
2023-05-15T11:30:08.071Z,99118.13
2023-05-15T11:35:11.469Z,99126.56
2023-05-15T11:40:25.798Z,99124.16
2023-05-15T11:45:40.092Z,99129.84
2023-05-15T11:50:42.770Z,99123.00
2023-05-15T11:55:44.716Z,99125.84
2023-05-15T12:00:47.983Z,99133.00
2023-05-15T12:05:58.342Z,99128.00
2023-05-15T12:11:02.810Z,99126.31
2023-05-15T12:16:05.040Z,99113.69
2023-05-15T12:21:06.800Z,99108.22
2023-05-15T12:26:08.520Z,99105.50
2023-05-15T12:31:11.660Z,99097.47
2023-05-15T12:36:13.314Z,99098.78
2023-05-15T12:41:15.056Z,99091.22
2023-05-15T12:46:21.807Z,99095.22
2023-05-15T12:51:23.534Z,99096.38
2023-05-15T12:56:26.222Z,99092.47
2023-05-15T13:01:28.951Z,99086.72
2023-05-15T13:06:44.881Z,99072.56
2023-05-15T13:11:47.704Z,99059.63
2023-05-15T13:16:49.338Z,99070.50
2023-05-15T13:21:51.039Z,99065.34
2023-05-15T13:26:52.931Z,99065.44
2023-05-15T13:31:54.642Z,99040.06
2023-05-15T13:36:56.226Z,99054.09
2023-05-15T13:41:58.514Z,99042.88
2023-05-15T13:47:04.290Z,99047.22
2023-05-15T13:52:06.372Z,99040.75
2023-05-15T13:57:07.983Z,99036.63
2023-05-15T14:02:09.564Z,99038.94
2023-05-15T14:07:11.248Z,99046.75
2023-05-15T14:12:12.986Z,99038.03
2023-05-15T14:17:15.112Z,99042.88
2023-05-15T14:22:16.713Z,99057.44
2023-05-15T14:27:18.339Z,99044.44
2023-05-15T14:32:20.107Z,99040.25
2023-05-15T14:37:21.791Z,99030.81
2023-05-15T14:42:23.560Z,99028.69
2023-05-15T14:47:27.838Z,99036.72
2023-05-15T14:52:29.578Z,99041.63
2023-05-15T14:57:31.159Z,99034.28
2023-05-15T15:02:33.010Z,99032.22
2023-05-15T15:08:04.825Z,99030.34
2023-05-15T15:13:07.805Z,99037.38
2023-05-15T15:18:09.505Z,99034.81
2023-05-15T15:23:11.109Z,99033.13
2023-05-15T15:28:12.986Z,99039.13
2023-05-15T15:33:14.579Z,99030.03
2023-05-15T15:38:16.344Z,99031.53
2023-05-15T15:43:17.960Z,99032.16
2023-05-15T15:48:20.757Z,99053.13
2023-05-15T15:53:22.931Z,99073.75
2023-05-15T15:58:24.845Z,99106.25
2023-05-15T16:03:26.647Z,99116.69
2023-05-15T16:08:28.999Z,99117.44
2023-05-15T16:13:30.659Z,99107.59
2023-05-15T16:18:32.367Z,99104.78
2023-05-15T16:23:35.466Z,99082.53
2023-05-15T16:28:37.466Z,99086.56
2023-05-15T16:33:39.202Z,99075.03
2023-05-15T16:38:40.950Z,99080.63
2023-05-15T16:43:42.630Z,99103.31
2023-05-15T16:48:44.465Z,99111.59
2023-05-15T16:53:47.068Z,99124.75
2023-05-15T16:58:48.771Z,99135.78
2023-05-15T17:03:50.843Z,99128.22
2023-05-15T17:08:52.836Z,99113.66
2023-05-15T17:13:54.514Z,99113.66
2023-05-15T17:18:56.450Z,99120.38
2023-05-15T17:23:58.278Z,99114.78
2023-05-15T17:29:00.610Z,99118.28
2023-05-15T17:34:02.285Z,99122.41
2023-05-15T17:39:03.936Z,99123.75
2023-05-15T17:44:05.794Z,99133.63
2023-05-15T17:49:07.549Z,99145.72
2023-05-15T17:54:09.193Z,99158.00
2023-05-15T17:59:10.957Z,99165.97
2023-05-15T18:04:27.561Z,99176.47
2023-05-15T18:14:31.289Z,99195.50
2023-05-15T18:19:33.224Z,99195.34
2023-05-15T18:24:34.934Z,99188.25
2023-05-15T18:29:36.615Z,99182.91
2023-05-15T18:34:38.200Z,99188.00
2023-05-15T18:39:40.006Z,99197.03
2023-05-15T18:44:41.915Z,99189.66
2023-05-15T18:49:43.785Z,99192.50
2023-05-15T18:54:45.591Z,99199.59
2023-05-15T18:59:48.127Z,99197.78
2023-05-15T19:04:49.888Z,99205.91
2023-05-15T19:09:51.742Z,99210.28
2023-05-15T19:14:53.437Z,99215.44
2023-05-15T19:19:55.255Z,99220.78
2023-05-15T19:24:56.947Z,99217.47
2023-05-15T19:29:58.990Z,99229.41
2023-05-15T19:35:00.583Z,99243.75
2023-05-15T19:40:02.299Z,99246.66
2023-05-15T19:45:04.353Z,99246.16
2023-05-15T19:50:06.753Z,99251.72
2023-05-15T19:55:08.983Z,99250.28
2023-05-15T20:00:12.349Z,99266.03
2023-05-15T20:05:15.500Z,99269.09
2023-05-15T20:10:18.972Z,99267.56
2023-05-15T20:15:20.651Z,99270.03
2023-05-15T20:20:23.005Z,99266.91
2023-05-15T20:25:27.481Z,99270.41
2023-05-15T20:30:29.641Z,99271.03
2023-05-15T20:35:32.098Z,99275.91
2023-05-15T20:40:33.721Z,99276.41
2023-05-15T20:45:35.484Z,99286.34
2023-05-15T20:50:37.458Z,99279.78
2023-05-15T20:55:39.083Z,99270.72
2023-05-15T21:00:40.690Z,99264.28
2023-05-15T21:05:42.312Z,99254.81
2023-05-15T21:10:44.089Z,99251.63
2023-05-15T21:15:45.701Z,99256.47
2023-05-15T21:20:47.339Z,99259.47
2023-05-15T21:25:49.000Z,99271.16
2023-05-15T21:30:50.671Z,99267.78
2023-05-15T21:35:52.727Z,99266.41
2023-05-15T21:40:54.310Z,99267.94
2023-05-15T21:45:57.004Z,99267.66
2023-05-15T21:50:58.751Z,99281.38
2023-05-15T21:56:01.789Z,99282.41
2023-05-15T22:01:03.492Z,99281.41
2023-05-15T22:06:05.180Z,99277.66
2023-05-15T22:11:07.333Z,99282.88
2023-05-15T22:16:09.539Z,99282.28
2023-05-15T22:21:11.401Z,99295.06
2023-05-15T22:26:13.089Z,99292.78
2023-05-15T22:31:14.707Z,99305.38
2023-05-15T22:36:16.495Z,99310.75
2023-05-15T22:41:18.255Z,99312.63
2023-05-15T22:46:19.918Z,99321.47
2023-05-15T22:51:22.288Z,99312.19
2023-05-15T22:56:24.031Z,99318.00
2023-05-15T23:01:25.949Z,99326.53
2023-05-15T23:06:27.692Z,99332.16
2023-05-15T23:11:29.313Z,99333.25
2023-05-15T23:16:31.186Z,99319.06
2023-05-15T23:21:32.966Z,99341.44
2023-05-15T23:26:34.601Z,99336.22
2023-05-15T23:31:36.238Z,99341.25
2023-05-15T23:36:37.947Z,99327.00
2023-05-15T23:41:39.532Z,99343.38
2023-05-15T23:46:41.171Z,99353.47
2023-05-15T23:51:43.674Z,99353.59
2023-05-15T23:56:45.358Z,99364.41
